Terminal Aerodrome Forecast
Issued by NWS Cleveland, OH

Home | Current Version | Previous Version | Text Only | Print | Product List | Glossary Off
Versions: 1 2 3 4 5 6 7 8 9 10 11 12 13 14 15 16

000
FTUS41 KCLE 200527
TAFYNG
TAF
KYNG 200527Z 2006/2106 19011KT P6SM SCT080 BKN150
     FM201500 21016G26KT P6SM SCT060 BKN120
     FM202300 19012KT P6SM SCT080 BKN200=

USA.gov is the U.S. government's official web portal to all federal, state and local government web resources and services.